sensor_id;sensor_type;location;lat;lon;timestamp;temperature;humidity
64549;DHT22;49838;51.798;10.954;2022-07-18T00:01:27;23.40;23.00
64549;DHT22;49838;51.798;10.954;2022-07-18T00:03:54;23.40;23.00
64549;DHT22;49838;51.798;10.954;2022-07-18T00:06:21;23.40;23.00
64549;DHT22;49838;51.798;10.954;2022-07-18T00:08:48;23.30;23.00
64549;DHT22;49838;51.798;10.954;2022-07-18T00:11:16;23.30;23.00
64549;DHT22;49838;51.798;10.954;2022-07-18T00:13:43;23.30;23.00
64549;DHT22;49838;51.798;10.954;2022-07-18T00:16:10;23.30;23.00
64549;DHT22;49838;51.798;10.954;2022-07-18T00:18:39;23.30;23.00
64549;DHT22;49838;51.798;10.954;2022-07-18T00:21:13;23.30;23.00
64549;DHT22;49838;51.798;10.954;2022-07-18T00:23:40;23.20;23.50
64549;DHT22;49838;51.798;10.954;2022-07-18T00:26:07;23.20;23.00
64549;DHT22;49838;51.798;10.954;2022-07-18T00:28:35;23.20;23.10
64549;DHT22;49838;51.798;10.954;2022-07-18T00:31:02;23.10;23.10
64549;DHT22;49838;51.798;10.954;2022-07-18T00:33:29;23.00;23.10
64549;DHT22;49838;51.798;10.954;2022-07-18T00:36:00;23.00;23.20
64549;DHT22;49838;51.798;10.954;2022-07-18T00:38:28;22.90;23.20
64549;DHT22;49838;51.798;10.954;2022-07-18T00:40:55;22.90;23.20
64549;DHT22;49838;51.798;10.954;2022-07-18T00:43:22;22.90;23.20
64549;DHT22;49838;51.798;10.954;2022-07-18T00:45:50;22.90;23.20
64549;DHT22;49838;51.798;10.954;2022-07-18T00:48:19;22.90;23.20
64549;DHT22;49838;51.798;10.954;2022-07-18T00:50:47;22.90;23.20
64549;DHT22;49838;51.798;10.954;2022-07-18T00:53:16;22.90;23.20
64549;DHT22;49838;51.798;10.954;2022-07-18T00:55:44;22.80;23.10
64549;DHT22;49838;51.798;10.954;2022-07-18T00:58:13;22.80;23.10
64549;DHT22;49838;51.798;10.954;2022-07-18T01:00:40;22.80;23.20
64549;DHT22;49838;51.798;10.954;2022-07-18T01:03:25;22.80;23.10
64549;DHT22;49838;51.798;10.954;2022-07-18T01:05:54;22.80;23.10
64549;DHT22;49838;51.798;10.954;2022-07-18T01:08:23;22.80;23.20
64549;DHT22;49838;51.798;10.954;2022-07-18T01:10:50;22.80;23.20
64549;DHT22;49838;51.798;10.954;2022-07-18T01:13:19;22.80;23.20
64549;DHT22;49838;51.798;10.954;2022-07-18T01:15:47;22.80;23.30
64549;DHT22;49838;51.798;10.954;2022-07-18T01:18:14;22.70;23.20
64549;DHT22;49838;51.798;10.954;2022-07-18T01:20:43;22.80;23.30
64549;DHT22;49838;51.798;10.954;2022-07-18T01:23:10;22.70;23.30
64549;DHT22;49838;51.798;10.954;2022-07-18T01:25:38;22.60;23.30
64549;DHT22;49838;51.798;10.954;2022-07-18T01:28:05;22.60;23.30
64549;DHT22;49838;51.798;10.954;2022-07-18T01:30:32;22.60;23.30
64549;DHT22;49838;51.798;10.954;2022-07-18T01:33:00;22.60;23.30
64549;DHT22;49838;51.798;10.954;2022-07-18T01:35:29;22.60;23.30
64549;DHT22;49838;51.798;10.954;2022-07-18T01:38:00;22.60;23.30
64549;DHT22;49838;51.798;10.954;2022-07-18T01:40:29;22.50;23.30
64549;DHT22;49838;51.798;10.954;2022-07-18T01:42:57;22.50;23.30
64549;DHT22;49838;51.798;10.954;2022-07-18T01:45:24;22.50;23.30
64549;DHT22;49838;51.798;10.954;2022-07-18T01:47:52;22.50;23.30
64549;DHT22;49838;51.798;10.954;2022-07-18T01:50:19;22.50;23.30
64549;DHT22;49838;51.798;10.954;2022-07-18T01:52:49;22.50;23.30
64549;DHT22;49838;51.798;10.954;2022-07-18T01:55:18;22.50;23.30
64549;DHT22;49838;51.798;10.954;2022-07-18T01:57:45;22.50;23.30
64549;DHT22;49838;51.798;10.954;2022-07-18T02:00:12;22.40;23.30
64549;DHT22;49838;51.798;10.954;2022-07-18T02:02:40;22.40;23.30
64549;DHT22;49838;51.798;10.954;2022-07-18T02:05:08;22.40;23.30
64549;DHT22;49838;51.798;10.954;2022-07-18T02:07:36;22.40;23.40
64549;DHT22;49838;51.798;10.954;2022-07-18T02:10:04;22.30;23.40
64549;DHT22;49838;51.798;10.954;2022-07-18T02:12:34;22.30;23.40
64549;DHT22;49838;51.798;10.954;2022-07-18T02:15:02;22.30;23.50
64549;DHT22;49838;51.798;10.954;2022-07-18T02:17:30;22.20;23.40
64549;DHT22;49838;51.798;10.954;2022-07-18T02:19:58;22.20;23.40
64549;DHT22;49838;51.798;10.954;2022-07-18T02:22:26;22.20;23.90
64549;DHT22;49838;51.798;10.954;2022-07-18T02:24:53;22.20;23.40
64549;DHT22;49838;51.798;10.954;2022-07-18T02:27:21;22.20;23.40
64549;DHT22;49838;51.798;10.954;2022-07-18T02:29:52;22.30;23.50
64549;DHT22;49838;51.798;10.954;2022-07-18T02:32:19;22.30;23.50
64549;DHT22;49838;51.798;10.954;2022-07-18T02:34:49;22.30;23.50
64549;DHT22;49838;51.798;10.954;2022-07-18T02:37:16;22.20;23.40
64549;DHT22;49838;51.798;10.954;2022-07-18T02:39:44;22.20;23.50
64549;DHT22;49838;51.798;10.954;2022-07-18T02:42:11;22.20;23.50
64549;DHT22;49838;51.798;10.954;2022-07-18T02:44:38;22.20;23.40
64549;DHT22;49838;51.798;10.954;2022-07-18T02:47:08;22.20;23.50
64549;DHT22;49838;51.798;10.954;2022-07-18T02:49:35;22.20;23.50
64549;DHT22;49838;51.798;10.954;2022-07-18T02:52:05;22.20;23.50
64549;DHT22;49838;51.798;10.954;2022-07-18T02:54:35;22.10;23.40
64549;DHT22;49838;51.798;10.954;2022-07-18T02:57:04;22.10;23.50
64549;DHT22;49838;51.798;10.954;2022-07-18T02:59:32;22.10;23.50
64549;DHT22;49838;51.798;10.954;2022-07-18T03:01:59;22.10;23.50
64549;DHT22;49838;51.798;10.954;2022-07-18T03:04:28;22.10;23.50
64549;DHT22;49838;51.798;10.954;2022-07-18T03:06:56;22.10;23.50
64549;DHT22;49838;51.798;10.954;2022-07-18T03:09:23;22.10;23.50
64549;DHT22;49838;51.798;10.954;2022-07-18T03:11:53;22.10;23.50
64549;DHT22;49838;51.798;10.954;2022-07-18T03:14:21;22.10;23.50
64549;DHT22;49838;51.798;10.954;2022-07-18T03:16:49;22.10;23.50
64549;DHT22;49838;51.798;10.954;2022-07-18T03:19:16;22.10;23.60
64549;DHT22;49838;51.798;10.954;2022-07-18T03:21:45;22.10;23.70
64549;DHT22;49838;51.798;10.954;2022-07-18T03:24:13;22.00;23.30
64549;DHT22;49838;51.798;10.954;2022-07-18T03:26:41;22.00;23.60
64549;DHT22;49838;51.798;10.954;2022-07-18T03:29:09;22.00;23.60
64549;DHT22;49838;51.798;10.954;2022-07-18T03:31:36;22.00;23.60
64549;DHT22;49838;51.798;10.954;2022-07-18T03:34:04;22.00;23.70
64549;DHT22;49838;51.798;10.954;2022-07-18T03:36:31;22.00;23.60
64549;DHT22;49838;51.798;10.954;2022-07-18T03:39:00;22.00;23.60
64549;DHT22;49838;51.798;10.954;2022-07-18T03:41:28;22.00;23.70
64549;DHT22;49838;51.798;10.954;2022-07-18T03:43:55;22.10;23.70
64549;DHT22;49838;51.798;10.954;2022-07-18T03:46:22;22.10;23.70
64549;DHT22;49838;51.798;10.954;2022-07-18T03:48:50;22.10;23.70
64549;DHT22;49838;51.798;10.954;2022-07-18T03:51:17;22.10;23.70
64549;DHT22;49838;51.798;10.954;2022-07-18T03:53:44;22.10;23.70
64549;DHT22;49838;51.798;10.954;2022-07-18T03:56:13;22.20;23.80
64549;DHT22;49838;51.798;10.954;2022-07-18T03:58:40;22.20;23.80
64549;DHT22;49838;51.798;10.954;2022-07-18T04:01:08;22.30;23.90
64549;DHT22;49838;51.798;10.954;2022-07-18T04:03:35;22.30;23.90
64549;DHT22;49838;51.798;10.954;2022-07-18T04:06:03;22.40;24.00
64549;DHT22;49838;51.798;10.954;2022-07-18T04:08:30;22.60;24.00
64549;DHT22;49838;51.798;10.954;2022-07-18T04:10:57;23.00;24.00
64549;DHT22;49838;51.798;10.954;2022-07-18T04:13:26;23.40;24.00
64549;DHT22;49838;51.798;10.954;2022-07-18T04:15:53;24.20;24.00
64549;DHT22;49838;51.798;10.954;2022-07-18T04:18:20;25.10;24.00
64549;DHT22;49838;51.798;10.954;2022-07-18T04:20:47;25.90;23.80
64549;DHT22;49838;51.798;10.954;2022-07-18T04:23:15;26.60;23.90
64549;DHT22;49838;51.798;10.954;2022-07-18T04:25:44;27.20;23.90
64549;DHT22;49838;51.798;10.954;2022-07-18T04:28:12;27.90;24.00
64549;DHT22;49838;51.798;10.954;2022-07-18T04:30:42;28.40;24.00
64549;DHT22;49838;51.798;10.954;2022-07-18T04:33:10;28.90;24.00
64549;DHT22;49838;51.798;10.954;2022-07-18T04:35:38;29.50;24.00
64549;DHT22;49838;51.798;10.954;2022-07-18T04:38:06;30.00;24.10
64549;DHT22;49838;51.798;10.954;2022-07-18T04:40:35;30.40;24.10
64549;DHT22;49838;51.798;10.954;2022-07-18T04:43:04;30.90;24.10
64549;DHT22;49838;51.798;10.954;2022-07-18T04:45:32;31.30;24.00
64549;DHT22;49838;51.798;10.954;2022-07-18T04:48:01;31.60;24.00
64549;DHT22;49838;51.798;10.954;2022-07-18T04:50:31;32.00;24.00
64549;DHT22;49838;51.798;10.954;2022-07-18T04:52:59;32.30;24.60
64549;DHT22;49838;51.798;10.954;2022-07-18T04:55:26;32.70;24.10
64549;DHT22;49838;51.798;10.954;2022-07-18T04:57:54;32.90;24.00
64549;DHT22;49838;51.798;10.954;2022-07-18T05:00:23;33.20;24.00
64549;DHT22;49838;51.798;10.954;2022-07-18T05:02:52;33.50;24.00
64549;DHT22;49838;51.798;10.954;2022-07-18T05:05:22;33.70;23.90
64549;DHT22;49838;51.798;10.954;2022-07-18T05:07:50;34.00;23.90
64549;DHT22;49838;51.798;10.954;2022-07-18T05:10:19;34.30;23.90
64549;DHT22;49838;51.798;10.954;2022-07-18T05:12:49;34.70;23.80
64549;DHT22;49838;51.798;10.954;2022-07-18T05:15:18;34.90;23.70
64549;DHT22;49838;51.798;10.954;2022-07-18T05:17:47;35.20;23.60
64549;DHT22;49838;51.798;10.954;2022-07-18T05:20:15;35.50;23.50
64549;DHT22;49838;51.798;10.954;2022-07-18T05:22:45;35.80;23.40
64549;DHT22;49838;51.798;10.954;2022-07-18T05:25:13;36.10;23.30
64549;DHT22;49838;51.798;10.954;2022-07-18T05:27:41;36.30;23.20
64549;DHT22;49838;51.798;10.954;2022-07-18T05:30:09;36.50;23.10
64549;DHT22;49838;51.798;10.954;2022-07-18T05:32:37;36.70;23.10
64549;DHT22;49838;51.798;10.954;2022-07-18T05:35:06;36.80;23.00
64549;DHT22;49838;51.798;10.954;2022-07-18T05:37:34;37.10;23.10
64549;DHT22;49838;51.798;10.954;2022-07-18T05:40:05;37.20;22.90
64549;DHT22;49838;51.798;10.954;2022-07-18T05:42:34;37.30;23.00
64549;DHT22;49838;51.798;10.954;2022-07-18T05:45:03;37.50;23.10
64549;DHT22;49838;51.798;10.954;2022-07-18T05:47:31;37.60;23.00
64549;DHT22;49838;51.798;10.954;2022-07-18T05:49:58;37.80;23.00
64549;DHT22;49838;51.798;10.954;2022-07-18T05:52:26;38.00;23.00
64549;DHT22;49838;51.798;10.954;2022-07-18T05:54:53;38.10;22.80
64549;DHT22;49838;51.798;10.954;2022-07-18T05:57:21;38.20;22.90
64549;DHT22;49838;51.798;10.954;2022-07-18T05:59:49;38.30;23.00
64549;DHT22;49838;51.798;10.954;2022-07-18T06:02:16;38.40;22.80
64549;DHT22;49838;51.798;10.954;2022-07-18T06:04:43;38.50;22.90
64549;DHT22;49838;51.798;10.954;2022-07-18T06:07:10;38.60;22.90
64549;DHT22;49838;51.798;10.954;2022-07-18T06:09:38;38.70;22.90
64549;DHT22;49838;51.798;10.954;2022-07-18T06:12:05;39.00;22.90
64549;DHT22;49838;51.798;10.954;2022-07-18T06:14:34;39.40;22.80
64549;DHT22;49838;51.798;10.954;2022-07-18T06:17:02;39.50;22.70
64549;DHT22;49838;51.798;10.954;2022-07-18T06:19:29;39.60;22.70
64549;DHT22;49838;51.798;10.954;2022-07-18T06:21:56;39.60;22.80
64549;DHT22;49838;51.798;10.954;2022-07-18T06:24:25;39.50;22.70
64549;DHT22;49838;51.798;10.954;2022-07-18T06:26:52;39.20;22.60
64549;DHT22;49838;51.798;10.954;2022-07-18T06:29:19;38.70;22.80
64549;DHT22;49838;51.798;10.954;2022-07-18T06:31:48;38.70;22.80
64549;DHT22;49838;51.798;10.954;2022-07-18T06:34:15;38.90;22.80
64549;DHT22;49838;51.798;10.954;2022-07-18T06:36:42;39.30;22.70
64549;DHT22;49838;51.798;10.954;2022-07-18T06:39:09;39.50;22.60
64549;DHT22;49838;51.798;10.954;2022-07-18T06:41:37;39.60;22.60
64549;DHT22;49838;51.798;10.954;2022-07-18T06:44:05;39.90;22.60
64549;DHT22;49838;51.798;10.954;2022-07-18T06:46:32;40.00;22.50
64549;DHT22;49838;51.798;10.954;2022-07-18T06:49:01;40.20;22.60
64549;DHT22;49838;51.798;10.954;2022-07-18T06:51:29;40.40;22.70
64549;DHT22;49838;51.798;10.954;2022-07-18T06:53:57;40.70;22.50
64549;DHT22;49838;51.798;10.954;2022-07-18T06:56:24;40.90;22.40
64549;DHT22;49838;51.798;10.954;2022-07-18T06:58:52;41.00;22.30
64549;DHT22;49838;51.798;10.954;2022-07-18T07:01:19;41.10;22.20
64549;DHT22;49838;51.798;10.954;2022-07-18T07:03:47;41.20;22.20
64549;DHT22;49838;51.798;10.954;2022-07-18T07:06:16;41.30;21.90
64549;DHT22;49838;51.798;10.954;2022-07-18T07:08:43;41.30;21.60
64549;DHT22;49838;51.798;10.954;2022-07-18T07:11:10;41.30;21.80
64549;DHT22;49838;51.798;10.954;2022-07-18T07:13:52;41.40;21.90
64549;DHT22;49838;51.798;10.954;2022-07-18T07:16:48;41.60;21.90
64549;DHT22;49838;51.798;10.954;2022-07-18T07:19:15;41.90;22.00
64549;DHT22;49838;51.798;10.954;2022-07-18T07:21:44;42.10;22.00
64549;DHT22;49838;51.798;10.954;2022-07-18T07:24:11;42.20;21.80
64549;DHT22;49838;51.798;10.954;2022-07-18T07:26:39;42.40;21.70
64549;DHT22;49838;51.798;10.954;2022-07-18T07:29:06;42.60;21.60
64549;DHT22;49838;51.798;10.954;2022-07-18T07:31:34;42.70;21.60
64549;DHT22;49838;51.798;10.954;2022-07-18T07:34:01;42.60;21.40
64549;DHT22;49838;51.798;10.954;2022-07-18T07:36:28;42.30;21.40
64549;DHT22;49838;51.798;10.954;2022-07-18T07:38:58;42.30;21.50
64549;DHT22;49838;51.798;10.954;2022-07-18T07:41:25;42.20;21.40
64549;DHT22;49838;51.798;10.954;2022-07-18T07:43:52;41.90;21.20
64549;DHT22;49838;51.798;10.954;2022-07-18T07:46:20;41.60;21.30
64549;DHT22;49838;51.798;10.954;2022-07-18T07:48:47;41.70;21.40
64549;DHT22;49838;51.798;10.954;2022-07-18T07:51:14;41.80;21.30
64549;DHT22;49838;51.798;10.954;2022-07-18T07:53:42;42.10;21.40
64549;DHT22;49838;51.798;10.954;2022-07-18T07:56:11;42.20;21.50
64549;DHT22;49838;51.798;10.954;2022-07-18T07:58:38;42.40;21.50
64549;DHT22;49838;51.798;10.954;2022-07-18T08:01:05;42.40;21.30
64549;DHT22;49838;51.798;10.954;2022-07-18T08:03:33;42.50;21.40
64549;DHT22;49838;51.798;10.954;2022-07-18T08:06:00;42.60;21.30
64549;DHT22;49838;51.798;10.954;2022-07-18T08:08:27;42.70;21.50
64549;DHT22;49838;51.798;10.954;2022-07-18T08:10:55;42.90;21.50
64549;DHT22;49838;51.798;10.954;2022-07-18T08:13:23;42.90;21.40
64549;DHT22;49838;51.798;10.954;2022-07-18T08:15:50;43.00;21.30
64549;DHT22;49838;51.798;10.954;2022-07-18T08:18:20;43.20;21.30
64549;DHT22;49838;51.798;10.954;2022-07-18T08:20:47;43.20;21.30
64549;DHT22;49838;51.798;10.954;2022-07-18T08:23:14;43.30;21.30
64549;DHT22;49838;51.798;10.954;2022-07-18T08:25:43;43.30;21.20
64549;DHT22;49838;51.798;10.954;2022-07-18T08:28:12;43.30;21.40
64549;DHT22;49838;51.798;10.954;2022-07-18T08:30:41;43.30;21.60
64549;DHT22;49838;51.798;10.954;2022-07-18T08:33:08;43.40;21.40
64549;DHT22;49838;51.798;10.954;2022-07-18T08:35:36;43.50;21.50
64549;DHT22;49838;51.798;10.954;2022-07-18T08:38:03;43.70;21.60
64549;DHT22;49838;51.798;10.954;2022-07-18T08:40:31;43.80;21.60
64549;DHT22;49838;51.798;10.954;2022-07-18T08:42:58;44.00;21.60
64549;DHT22;49838;51.798;10.954;2022-07-18T08:45:26;44.30;21.60
64549;DHT22;49838;51.798;10.954;2022-07-18T08:47:54;44.50;21.30
64549;DHT22;49838;51.798;10.954;2022-07-18T08:50:22;44.70;21.20
64549;DHT22;49838;51.798;10.954;2022-07-18T08:52:49;44.70;20.70
64549;DHT22;49838;51.798;10.954;2022-07-18T08:55:17;44.70;20.40
64549;DHT22;49838;51.798;10.954;2022-07-18T08:57:45;44.50;20.50
64549;DHT22;49838;51.798;10.954;2022-07-18T09:00:12;44.50;20.80
64549;DHT22;49838;51.798;10.954;2022-07-18T09:02:40;44.60;20.70
64549;DHT22;49838;51.798;10.954;2022-07-18T09:05:17;44.70;20.70
64549;DHT22;49838;51.798;10.954;2022-07-18T09:07:47;44.60;20.40
64549;DHT22;49838;51.798;10.954;2022-07-18T09:10:15;44.50;20.40
64549;DHT22;49838;51.798;10.954;2022-07-18T09:12:54;44.40;20.50
64549;DHT22;49838;51.798;10.954;2022-07-18T09:15:22;44.40;20.20
64549;DHT22;49838;51.798;10.954;2022-07-18T09:17:50;44.40;20.10
64549;DHT22;49838;51.798;10.954;2022-07-18T09:20:18;44.30;20.10
64549;DHT22;49838;51.798;10.954;2022-07-18T09:22:46;44.30;19.90
64549;DHT22;49838;51.798;10.954;2022-07-18T09:25:15;44.10;20.00
64549;DHT22;49838;51.798;10.954;2022-07-18T09:27:43;44.20;20.30
64549;DHT22;49838;51.798;10.954;2022-07-18T09:30:13;44.30;20.40
64549;DHT22;49838;51.798;10.954;2022-07-18T09:32:51;44.40;20.50
64549;DHT22;49838;51.798;10.954;2022-07-18T09:35:23;44.50;20.40
64549;DHT22;49838;51.798;10.954;2022-07-18T09:37:54;44.60;20.10
64549;DHT22;49838;51.798;10.954;2022-07-18T09:40:25;44.70;20.40
64549;DHT22;49838;51.798;10.954;2022-07-18T09:42:54;44.70;20.40
64549;DHT22;49838;51.798;10.954;2022-07-18T09:45:24;44.70;19.90
64549;DHT22;49838;51.798;10.954;2022-07-18T09:47:56;44.70;19.70
64549;DHT22;49838;51.798;10.954;2022-07-18T09:50:27;44.60;19.50
64549;DHT22;49838;51.798;10.954;2022-07-18T09:53:10;44.70;20.20
64549;DHT22;49838;51.798;10.954;2022-07-18T09:55:46;44.90;20.30
64549;DHT22;49838;51.798;10.954;2022-07-18T09:58:15;45.20;20.40
64549;DHT22;49838;51.798;10.954;2022-07-18T10:00:45;45.40;20.00
64549;DHT22;49838;51.798;10.954;2022-07-18T10:03:13;45.60;19.90
64549;DHT22;49838;51.798;10.954;2022-07-18T10:05:42;45.60;19.90
64549;DHT22;49838;51.798;10.954;2022-07-18T10:08:11;45.60;20.10
64549;DHT22;49838;51.798;10.954;2022-07-18T10:10:40;45.80;20.30
64549;DHT22;49838;51.798;10.954;2022-07-18T10:13:09;46.10;20.00
64549;DHT22;49838;51.798;10.954;2022-07-18T10:15:38;46.30;20.00
64549;DHT22;49838;51.798;10.954;2022-07-18T10:18:06;46.30;20.00
64549;DHT22;49838;51.798;10.954;2022-07-18T10:20:37;46.30;19.80
64549;DHT22;49838;51.798;10.954;2022-07-18T10:23:09;46.00;19.60
64549;DHT22;49838;51.798;10.954;2022-07-18T10:25:40;45.80;19.60
64549;DHT22;49838;51.798;10.954;2022-07-18T10:28:09;45.60;19.90
64549;DHT22;49838;51.798;10.954;2022-07-18T10:30:38;45.60;19.70
64549;DHT22;49838;51.798;10.954;2022-07-18T10:36:07;45.60;19.60
64549;DHT22;49838;51.798;10.954;2022-07-18T10:38:37;45.50;19.60
64549;DHT22;49838;51.798;10.954;2022-07-18T10:41:09;45.30;19.60
64549;DHT22;49838;51.798;10.954;2022-07-18T10:43:46;45.40;19.50
64549;DHT22;49838;51.798;10.954;2022-07-18T10:46:13;45.40;19.70
64549;DHT22;49838;51.798;10.954;2022-07-18T10:48:47;45.60;19.90
64549;DHT22;49838;51.798;10.954;2022-07-18T10:51:28;45.80;19.90
64549;DHT22;49838;51.798;10.954;2022-07-18T10:54:04;46.10;19.70
64549;DHT22;49838;51.798;10.954;2022-07-18T10:59:32;45.80;19.00
64549;DHT22;49838;51.798;10.954;2022-07-18T11:02:01;45.70;19.40
64549;DHT22;49838;51.798;10.954;2022-07-18T11:04:33;45.50;19.20
64549;DHT22;49838;51.798;10.954;2022-07-18T11:07:11;45.30;19.00
64549;DHT22;49838;51.798;10.954;2022-07-18T11:09:42;45.10;19.20
64549;DHT22;49838;51.798;10.954;2022-07-18T11:12:17;44.90;19.00
64549;DHT22;49838;51.798;10.954;2022-07-18T11:15:02;44.70;18.90
64549;DHT22;49838;51.798;10.954;2022-07-18T11:20:29;44.00;18.90
64549;DHT22;49838;51.798;10.954;2022-07-18T11:23:03;43.60;18.60
64549;DHT22;49838;51.798;10.954;2022-07-18T11:25:33;43.30;18.70
64549;DHT22;49838;51.798;10.954;2022-07-18T11:28:00;43.00;18.60
64549;DHT22;49838;51.798;10.954;2022-07-18T11:30:29;42.80;18.70
64549;DHT22;49838;51.798;10.954;2022-07-18T11:32:56;42.60;18.30
64549;DHT22;49838;51.798;10.954;2022-07-18T11:35:24;42.40;18.40
64549;DHT22;49838;51.798;10.954;2022-07-18T11:37:52;42.10;18.40
64549;DHT22;49838;51.798;10.954;2022-07-18T11:40:21;41.90;18.80
64549;DHT22;49838;51.798;10.954;2022-07-18T11:42:50;41.90;18.90
64549;DHT22;49838;51.798;10.954;2022-07-18T11:45:17;41.90;18.90
64549;DHT22;49838;51.798;10.954;2022-07-18T11:47:45;41.80;18.80
64549;DHT22;49838;51.798;10.954;2022-07-18T11:50:14;41.70;19.00
64549;DHT22;49838;51.798;10.954;2022-07-18T11:52:42;41.70;19.10
64549;DHT22;49838;51.798;10.954;2022-07-18T11:55:10;41.70;19.10
64549;DHT22;49838;51.798;10.954;2022-07-18T11:57:38;41.70;19.00
64549;DHT22;49838;51.798;10.954;2022-07-18T12:00:17;41.60;19.00
64549;DHT22;49838;51.798;10.954;2022-07-18T12:02:46;41.50;18.90
64549;DHT22;49838;51.798;10.954;2022-07-18T12:05:13;41.50;18.90
64549;DHT22;49838;51.798;10.954;2022-07-18T12:07:40;41.40;18.90
64549;DHT22;49838;51.798;10.954;2022-07-18T12:10:14;41.30;18.90
64549;DHT22;49838;51.798;10.954;2022-07-18T12:12:42;41.20;18.90
64549;DHT22;49838;51.798;10.954;2022-07-18T12:15:09;41.20;18.90
64549;DHT22;49838;51.798;10.954;2022-07-18T12:17:44;41.20;18.80
64549;DHT22;49838;51.798;10.954;2022-07-18T12:20:14;41.20;18.90
64549;DHT22;49838;51.798;10.954;2022-07-18T12:28:24;41.00;18.90
64549;DHT22;49838;51.798;10.954;2022-07-18T12:30:52;41.00;18.90
64549;DHT22;49838;51.798;10.954;2022-07-18T12:33:21;40.90;18.90
64549;DHT22;49838;51.798;10.954;2022-07-18T12:35:55;40.90;18.90
64549;DHT22;49838;51.798;10.954;2022-07-18T12:38:24;40.80;19.10
64549;DHT22;49838;51.798;10.954;2022-07-18T12:40:53;40.70;18.70
64549;DHT22;49838;51.798;10.954;2022-07-18T12:43:24;40.60;18.70
64549;DHT22;49838;51.798;10.954;2022-07-18T12:45:53;40.60;18.70
64549;DHT22;49838;51.798;10.954;2022-07-18T12:48:23;40.60;18.70
64549;DHT22;49838;51.798;10.954;2022-07-18T12:50:56;40.60;18.80
64549;DHT22;49838;51.798;10.954;2022-07-18T12:53:26;40.60;18.90
64549;DHT22;49838;51.798;10.954;2022-07-18T12:55:54;40.60;19.00
64549;DHT22;49838;51.798;10.954;2022-07-18T12:58:22;40.60;19.00
64549;DHT22;49838;51.798;10.954;2022-07-18T13:00:49;40.70;19.00
64549;DHT22;49838;51.798;10.954;2022-07-18T13:03:17;40.60;18.80
64549;DHT22;49838;51.798;10.954;2022-07-18T13:05:46;40.60;18.80
64549;DHT22;49838;51.798;10.954;2022-07-18T13:08:13;40.60;18.90
64549;DHT22;49838;51.798;10.954;2022-07-18T13:10:40;40.70;19.00
64549;DHT22;49838;51.798;10.954;2022-07-18T13:13:08;40.70;19.00
64549;DHT22;49838;51.798;10.954;2022-07-18T13:15:36;40.70;19.00
64549;DHT22;49838;51.798;10.954;2022-07-18T13:18:04;40.70;18.90
64549;DHT22;49838;51.798;10.954;2022-07-18T13:20:32;40.70;18.90
64549;DHT22;49838;51.798;10.954;2022-07-18T13:23:00;40.70;19.00
64549;DHT22;49838;51.798;10.954;2022-07-18T13:25:30;40.70;19.00
64549;DHT22;49838;51.798;10.954;2022-07-18T13:27:58;40.70;18.90
64549;DHT22;49838;51.798;10.954;2022-07-18T13:30:25;40.70;19.00
64549;DHT22;49838;51.798;10.954;2022-07-18T13:32:53;40.70;19.00
64549;DHT22;49838;51.798;10.954;2022-07-18T13:35:20;40.70;18.90
64549;DHT22;49838;51.798;10.954;2022-07-18T13:37:48;40.70;18.90
64549;DHT22;49838;51.798;10.954;2022-07-18T13:40:16;40.70;19.00
64549;DHT22;49838;51.798;10.954;2022-07-18T13:42:44;40.70;19.00
64549;DHT22;49838;51.798;10.954;2022-07-18T13:45:11;40.70;18.90
64549;DHT22;49838;51.798;10.954;2022-07-18T13:47:40;40.60;18.80
64549;DHT22;49838;51.798;10.954;2022-07-18T13:50:08;40.60;18.80
64549;DHT22;49838;51.798;10.954;2022-07-18T13:52:36;40.60;18.90
64549;DHT22;49838;51.798;10.954;2022-07-18T13:55:04;40.60;18.90
64549;DHT22;49838;51.798;10.954;2022-07-18T13:57:33;40.60;18.90
64549;DHT22;49838;51.798;10.954;2022-07-18T14:00:00;40.60;19.00
64549;DHT22;49838;51.798;10.954;2022-07-18T14:02:30;40.50;18.80
64549;DHT22;49838;51.798;10.954;2022-07-18T14:04:58;40.50;18.70
64549;DHT22;49838;51.798;10.954;2022-07-18T14:07:25;40.30;18.70
64549;DHT22;49838;51.798;10.954;2022-07-18T14:09:52;40.20;18.70
64549;DHT22;49838;51.798;10.954;2022-07-18T14:12:20;40.10;18.60
64549;DHT22;49838;51.798;10.954;2022-07-18T14:14:48;40.10;18.80
64549;DHT22;49838;51.798;10.954;2022-07-18T14:17:16;40.10;18.80
64549;DHT22;49838;51.798;10.954;2022-07-18T14:19:43;40.00;18.90
64549;DHT22;49838;51.798;10.954;2022-07-18T14:22:10;40.00;19.40
64549;DHT22;49838;51.798;10.954;2022-07-18T14:24:38;40.10;19.00
64549;DHT22;49838;51.798;10.954;2022-07-18T14:27:05;40.10;19.00
64549;DHT22;49838;51.798;10.954;2022-07-18T14:29:33;40.10;19.00
64549;DHT22;49838;51.798;10.954;2022-07-18T14:32:01;40.00;18.70
64549;DHT22;49838;51.798;10.954;2022-07-18T14:34:30;39.90;18.80
64549;DHT22;49838;51.798;10.954;2022-07-18T14:36:58;39.90;18.80
64549;DHT22;49838;51.798;10.954;2022-07-18T14:39:25;39.90;18.80
64549;DHT22;49838;51.798;10.954;2022-07-18T14:41:53;40.00;18.90
64549;DHT22;49838;51.798;10.954;2022-07-18T14:44:20;40.10;19.00
64549;DHT22;49838;51.798;10.954;2022-07-18T14:46:47;40.10;18.90
64549;DHT22;49838;51.798;10.954;2022-07-18T14:49:16;40.10;19.00
64549;DHT22;49838;51.798;10.954;2022-07-18T14:51:43;40.20;19.10
64549;DHT22;49838;51.798;10.954;2022-07-18T14:54:10;40.20;19.10
64549;DHT22;49838;51.798;10.954;2022-07-18T14:56:38;40.30;19.10
64549;DHT22;49838;51.798;10.954;2022-07-18T14:59:08;40.20;18.90
64549;DHT22;49838;51.798;10.954;2022-07-18T15:01:35;40.20;19.00
64549;DHT22;49838;51.798;10.954;2022-07-18T15:04:02;40.20;19.00
64549;DHT22;49838;51.798;10.954;2022-07-18T15:06:31;40.20;19.10
64549;DHT22;49838;51.798;10.954;2022-07-18T15:08:58;40.20;19.10
64549;DHT22;49838;51.798;10.954;2022-07-18T15:11:25;40.20;19.00
64549;DHT22;49838;51.798;10.954;2022-07-18T15:13:53;40.20;19.00
64549;DHT22;49838;51.798;10.954;2022-07-18T15:16:21;40.10;19.10
64549;DHT22;49838;51.798;10.954;2022-07-18T15:18:49;40.20;19.10
64549;DHT22;49838;51.798;10.954;2022-07-18T15:21:16;40.20;19.10
64549;DHT22;49838;51.798;10.954;2022-07-18T15:23:45;40.20;19.10
64549;DHT22;49838;51.798;10.954;2022-07-18T15:26:13;40.10;19.00
64549;DHT22;49838;51.798;10.954;2022-07-18T15:28:41;40.10;19.00
64549;DHT22;49838;51.798;10.954;2022-07-18T15:31:08;40.10;19.00
64549;DHT22;49838;51.798;10.954;2022-07-18T15:33:35;40.10;19.00
64549;DHT22;49838;51.798;10.954;2022-07-18T15:36:03;40.10;19.00
64549;DHT22;49838;51.798;10.954;2022-07-18T15:38:30;40.10;18.80